Карточка аэропорта UACK

Внимание!
Информация на этой странице в стадии наполнения.
Если вы не увидели какой-то информации, или заметили неточность - пожалуйста сообщите нам!
Спасибо!
Команда RU-STAFF
Название аэропортаКокшетау
Название аэропорта (англ.)Kokshetau
Превышение889 ft. (271 m.)
Координаты53°19.8', 69°35.802'
Высота перехода10000ft
Эшелон переходаFL120, QNH<733:FL130
Коды ответчика7264-7267
Зона ОрВДАстана РПИ (UACN)
Данные METARUACK 251130Z 25007MPS CAVOK 22/12 Q1002 NOSIG RMK QFE728/0971
Проноз погоды (TAF)UACK 251100Z 2512/2521 22007MPS 9999 SCT040 BKN100 TEMPO 2512/2518 23009G15MPS 3100 -SHRA BKN020CB
NOTAMshow/hide NOTAM
AWOS   TABLE

Информация о ВПП

ВПП Длина ВПП (м.) Покрытие Курс ВПП Частота ILS
202850Асфальтобетон201109.5
022850Асфальтобетон21110.3

Диспетчерские позиции




Спутниковое изображение